Time;durP1;ratioP1;P1;durP2;ratioP2;P2;SDS_P1;SDS_P2;PMS_P1;PMS_P2;Temp;Humidity;BMP_temperature;BMP_pressure;BME280_temperature;BME280_humidity;BME280_pressure;Samples;Min_cycle;Max_cycle;Signal;HPM_P1;HPM_P2
2021/04/11 00:00:58;;;;;;;2.10;0.90;;;;;;;;;;5119524;27;20610;-73
2021/04/11 00:03:26;;;;;;;0.80;0.80;;;;;;;;;;5119471;28;20288;-73
2021/04/11 00:05:54;;;;;;;3.03;0.90;;;;;;;;;;5119440;28;20240;-73
2021/04/11 00:08:22;;;;;;;1.43;0.70;;;;;;;;;;5119550;28;20288;-73
2021/04/11 00:10:50;;;;;;;0.73;0.73;;;;;;;;;;5119250;28;20211;-73
2021/04/11 00:13:18;;;;;;;1.27;0.93;;;;;;;;;;5119116;27;20200;-73
2021/04/11 00:15:45;;;;;;;1.33;0.93;;;;;;;;;;5118991;28;20588;-73
2021/04/11 00:18:13;;;;;;;3.93;0.97;;;;;;;;;;5118897;28;20209;-73
2021/04/11 00:20:39;;;;;;;0.93;0.70;;;;;;;;;;5118937;28;20240;-73
2021/04/11 00:23:08;;;;;;;0.93;0.90;;;;;;;;;;5118896;28;20232;-73
2021/04/11 00:25:36;;;;;;;1.17;0.80;;;;;;;;;;5118669;28;20300;-73
2021/04/11 00:28:03;;;;;;;0.67;0.67;;;;;;;;;;5118931;28;20209;-73
2021/04/11 00:30:30;;;;;;;0.77;0.77;;;;;;;;;;5118788;28;20676;-73
2021/04/11 00:32:58;;;;;;;2.00;1.00;;;;;;;;;;5119155;28;20209;-73
2021/04/11 00:35:26;;;;;;;1.67;1.00;;;;;;;;;;5118780;28;20288;-73
2021/04/11 00:37:53;;;;;;;1.07;0.90;;;;;;;;;;5118991;28;20236;-73
2021/04/11 00:40:21;;;;;;;2.63;1.10;;;;;;;;;;5118866;28;20233;-73
2021/04/11 00:42:50;;;;;;;2.13;1.30;;;;;;;;;;5118246;28;20576;-72
2021/04/11 00:45:22;;;;;;;1.57;0.70;;;;;;;;;;5118370;28;20708;-72
2021/04/11 00:47:49;;;;;;;2.10;1.00;;;;;;;;;;5118448;28;20244;-72
2021/04/11 00:50:16;;;;;;;0.83;0.83;;;;;;;;;;5118837;28;20204;-73
2021/04/11 00:52:44;;;;;;;2.30;0.90;;;;;;;;;;5118411;28;20236;-72
2021/04/11 00:55:12;;;;;;;1.10;0.80;;;;;;;;;;5118754;28;20252;-72
2021/04/11 00:57:40;;;;;;;3.57;0.90;;;;;;;;;;5117954;28;20296;-72
2021/04/11 01:00:08;;;;;;;1.77;1.10;;;;;;;;;;5118652;28;20288;-72
2021/04/11 01:02:37;;;;;;;1.87;1.10;;;;;;;;;;5118294;28;21672;-72
2021/04/11 01:05:07;;;;;;;1.93;0.67;;;;;;;;;;5118504;28;20232;-72
2021/04/11 01:07:34;;;;;;;0.93;0.93;;;;;;;;;;5118214;28;20292;-72
2021/04/11 01:10:02;;;;;;;2.20;0.90;;;;;;;;;;5118254;28;20292;-72
2021/04/11 01:12:29;;;;;;;0.80;0.80;;;;;;;;;;5118040;28;20311;-72
2021/04/11 01:14:57;;;;;;;0.50;0.50;;;;;;;;;;5118546;28;20305;-72
2021/04/11 01:17:24;;;;;;;1.93;0.80;;;;;;;;;;5118430;28;20205;-72
2021/04/11 01:19:53;;;;;;;2.43;0.70;;;;;;;;;;5118486;28;20204;-72
2021/04/11 01:22:23;;;;;;;1.40;0.80;;;;;;;;;;5118086;28;20624;-72
2021/04/11 01:24:52;;;;;;;0.80;0.80;;;;;;;;;;5118072;28;20328;-73
2021/04/11 01:27:20;;;;;;;1.77;0.73;;;;;;;;;;5117649;28;20291;-72
2021/04/11 01:29:48;;;;;;;1.90;0.73;;;;;;;;;;5118870;28;20292;-72
2021/04/11 01:32:16;;;;;;;0.93;0.90;;;;;;;;;;5122300;28;20232;-73
2021/04/11 01:34:43;;;;;;;0.77;0.77;;;;;;;;;;5122069;28;20643;-72
2021/04/11 01:37:13;;;;;;;0.87;0.77;;;;;;;;;;5122342;27;20707;-72
2021/04/11 01:39:42;;;;;;;1.33;1.23;;;;;;;;;;5122434;28;20292;-72
2021/04/11 01:42:11;;;;;;;0.90;0.60;;;;;;;;;;5121989;28;20211;-73
2021/04/11 01:44:40;;;;;;;0.83;0.63;;;;;;;;;;5122251;28;20312;-72
2021/04/11 01:47:07;;;;;;;1.63;0.70;;;;;;;;;;5122185;28;20211;-72
2021/04/11 01:49:34;;;;;;;4.47;0.73;;;;;;;;;;5122355;27;20213;-72
2021/04/11 01:52:03;;;;;;;1.47;0.63;;;;;;;;;;5122205;28;20300;-73
2021/04/11 01:54:31;;;;;;;0.97;0.67;;;;;;;;;;5121760;28;20308;-72
2021/04/11 01:56:58;;;;;;;1.80;0.70;;;;;;;;;;5121562;28;20288;-72
2021/04/11 01:59:27;;;;;;;0.60;0.60;;;;;;;;;;5122076;28;20284;-73
2021/04/11 02:01:54;;;;;;;0.90;0.77;;;;;;;;;;5121977;28;20652;-73
2021/04/11 02:04:22;;;;;;;0.80;0.80;;;;;;;;;;5121877;28;20257;-73
2021/04/11 02:06:50;;;;;;;3.43;0.60;;;;;;;;;;5121980;28;20296;-73
2021/04/11 02:09:18;;;;;;;1.17;0.40;;;;;;;;;;5121813;28;20208;-73
2021/04/11 02:11:46;;;;;;;1.10;0.60;;;;;;;;;;5121082;28;20695;-73
2021/04/11 02:14:14;;;;;;;0.80;0.63;;;;;;;;;;5121799;28;20236;-73
2021/04/11 02:16:42;;;;;;;1.00;0.63;;;;;;;;;;5121489;28;20233;-73
2021/04/11 02:19:12;;;;;;;0.70;0.60;;;;;;;;;;5121763;28;20219;-73
2021/04/11 02:21:40;;;;;;;1.03;0.70;;;;;;;;;;5121778;28;20236;-73
2021/04/11 02:24:08;;;;;;;0.50;0.50;;;;;;;;;;5120878;28;20324;-73
2021/04/11 02:26:35;;;;;;;0.70;0.63;;;;;;;;;;5119858;28;20209;-73
2021/04/11 02:29:04;;;;;;;1.33;0.50;;;;;;;;;;5120027;28;20640;-73
2021/04/11 02:31:30;;;;;;;0.50;0.50;;;;;;;;;;5119873;28;20226;-72
2021/04/11 02:34:02;;;;;;;1.03;0.70;;;;;;;;;;5119931;28;20205;-73
2021/04/11 02:36:30;;;;;;;0.83;0.63;;;;;;;;;;5119773;28;20208;-73
2021/04/11 02:38:57;;;;;;;0.70;0.70;;;;;;;;;;5120073;28;20244;-73
2021/04/11 02:41:26;;;;;;;0.77;0.60;;;;;;;;;;5118985;28;20236;-72
2021/04/11 02:43:54;;;;;;;2.37;0.63;;;;;;;;;;5119730;28;20201;-72
2021/04/11 02:46:21;;;;;;;0.77;0.50;;;;;;;;;;5119484;28;20248;-72
2021/04/11 02:48:53;;;;;;;0.60;0.60;;;;;;;;;;5119997;28;20208;-72
2021/04/11 02:51:21;;;;;;;0.80;0.60;;;;;;;;;;5119767;28;20228;-73
2021/04/11 02:53:49;;;;;;;1.53;0.70;;;;;;;;;;5119874;28;20291;-72
2021/04/11 02:56:16;;;;;;;1.37;0.57;;;;;;;;;;5119037;28;20240;-73
2021/04/11 02:58:43;;;;;;;1.10;0.70;;;;;;;;;;5119430;28;20668;-72
2021/04/11 03:01:14;;;;;;;0.77;0.50;;;;;;;;;;5119675;28;20264;-72
2021/04/11 03:03:41;;;;;;;1.27;0.60;;;;;;;;;;5119573;28;20272;-72
2021/04/11 03:06:11;;;;;;;0.87;0.60;;;;;;;;;;5119517;28;20311;-72
2021/04/11 03:08:40;;;;;;;0.40;0.40;;;;;;;;;;5119491;28;20308;-72
2021/04/11 03:11:10;;;;;;;0.67;0.57;;;;;;;;;;5119157;28;20284;-72
2021/04/11 03:13:39;;;;;;;0.50;0.50;;;;;;;;;;5119477;28;20236;-72
2021/04/11 03:16:06;;;;;;;1.70;0.60;;;;;;;;;;5119331;28;20307;-73
2021/04/11 03:18:33;;;;;;;3.10;0.87;;;;;;;;;;5119201;28;20240;-72
2021/04/11 03:21:00;;;;;;;0.60;0.60;;;;;;;;;;5119231;28;20676;-73
2021/04/11 03:23:27;;;;;;;1.80;0.70;;;;;;;;;;5091079;28;791600;-72
2021/04/11 03:25:58;;;;;;;2.40;0.93;;;;;;;;;;5119728;28;20354;-72
2021/04/11 03:28:26;;;;;;;0.63;0.63;;;;;;;;;;5119980;28;20297;-73
2021/04/11 03:30:55;;;;;;;0.63;0.50;;;;;;;;;;5120304;28;20264;-73
2021/04/11 03:33:23;;;;;;;0.50;0.50;;;;;;;;;;5119905;28;20663;-73
2021/04/11 03:35:51;;;;;;;0.77;0.60;;;;;;;;;;5116521;28;20221;-73
2021/04/11 03:38:19;;;;;;;0.90;0.60;;;;;;;;;;5119898;28;20235;-73
2021/04/11 03:40:50;;;;;;;1.60;0.50;;;;;;;;;;5119401;27;20804;-73
2021/04/11 03:43:21;;;;;;;1.00;0.80;;;;;;;;;;5119754;28;20257;-73
2021/04/11 03:45:48;;;;;;;0.60;0.57;;;;;;;;;;5119554;28;20332;-73
2021/04/11 03:48:18;;;;;;;0.50;0.50;;;;;;;;;;5119766;28;20264;-73
2021/04/11 03:50:48;;;;;;;1.53;0.70;;;;;;;;;;5119684;28;20204;-73
2021/04/11 03:53:17;;;;;;;0.50;0.50;;;;;;;;;;5118741;28;20283;-73
2021/04/11 03:55:46;;;;;;;2.03;0.50;;;;;;;;;;5119126;28;20228;-73
2021/04/11 03:58:16;;;;;;;1.33;0.40;;;;;;;;;;5119572;28;20204;-73
2021/04/11 04:00:47;;;;;;;0.87;0.70;;;;;;;;;;5119245;28;20251;-73
2021/04/11 04:03:15;;;;;;;1.00;0.97;;;;;;;;;;5119516;28;20205;-73
2021/04/11 04:05:43;;;;;;;0.37;0.37;;;;;;;;;;5119337;28;20271;-73
2021/04/11 04:08:10;;;;;;;0.63;0.50;;;;;;;;;;5119620;28;20239;-73
2021/04/11 04:10:39;;;;;;;0.60;0.53;;;;;;;;;;5119389;28;20644;-73
2021/04/11 04:13:12;;;;;;;0.47;0.47;;;;;;;;;;5119450;28;20205;-73
2021/04/11 04:15:43;;;;;;;0.73;0.43;;;;;;;;;;5119051;28;20656;-73
2021/04/11 04:18:29;;;;;;;0.70;0.70;;;;;;;;;;5119107;28;20227;-73
2021/04/11 04:20:59;;;;;;;1.13;0.53;;;;;;;;;;5119332;28;20287;-73
2021/04/11 04:23:32;;;;;;;0.70;0.57;;;;;;;;;;5118967;28;20236;-73
2021/04/11 04:26:15;;;;;;;0.40;0.40;;;;;;;;;;5118817;28;20315;-73
2021/04/11 04:28:50;;;;;;;0.40;0.40;;;;;;;;;;5119004;28;20197;-73
2021/04/11 04:31:21;;;;;;;0.40;0.40;;;;;;;;;;5119144;28;20204;-73
2021/04/11 04:33:57;;;;;;;1.13;0.50;;;;;;;;;;5119122;28;20247;-73
2021/04/11 04:36:33;;;;;;;0.97;0.57;;;;;;;;;;5118736;27;20608;-73
2021/04/11 04:39:04;;;;;;;0.83;0.30;;;;;;;;;;5119024;28;20287;-73
2021/04/11 04:41:35;;;;;;;0.60;0.60;;;;;;;;;;5118626;28;20216;-73
2021/04/11 04:44:05;;;;;;;0.73;0.73;;;;;;;;;;5118851;28;20241;-73
2021/04/11 04:46:35;;;;;;;0.50;0.50;;;;;;;;;;5118655;28;20224;-73
2021/04/11 04:49:08;;;;;;;0.30;0.30;;;;;;;;;;5118648;28;20205;-73
2021/04/11 04:51:39;;;;;;;1.13;0.70;;;;;;;;;;5118807;28;20283;-73
2021/04/11 04:54:09;;;;;;;1.70;0.60;;;;;;;;;;5118534;28;20236;-73
2021/04/11 04:56:37;;;;;;;0.93;0.47;;;;;;;;;;5118153;28;20236;-73
2021/04/11 04:59:06;;;;;;;0.83;0.60;;;;;;;;;;5118638;28;20204;-73
2021/04/11 05:01:36;;;;;;;0.47;0.47;;;;;;;;;;5118389;28;20236;-73
2021/04/11 05:04:07;;;;;;;0.77;0.77;;;;;;;;;;5118175;28;20254;-73
2021/04/11 05:06:37;;;;;;;1.60;0.50;;;;;;;;;;5118536;28;20227;-73
2021/04/11 05:09:06;;;;;;;1.17;0.50;;;;;;;;;;5118683;28;20232;-73
2021/04/11 05:11:37;;;;;;;1.13;0.90;;;;;;;;;;5117843;28;20241;-73
2021/04/11 05:14:06;;;;;;;0.67;0.67;;;;;;;;;;5118381;28;20262;-73
2021/04/11 05:16:34;;;;;;;0.80;0.80;;;;;;;;;;5118383;28;20208;-73
2021/04/11 05:19:03;;;;;;;2.90;0.93;;;;;;;;;;5118419;28;20230;-73
2021/04/11 05:21:33;;;;;;;1.30;0.40;;;;;;;;;;5117370;28;20293;-73
2021/04/11 05:24:05;;;;;;;1.07;0.70;;;;;;;;;;5120459;28;20315;-73
2021/04/11 05:26:36;;;;;;;2.00;0.40;;;;;;;;;;5115135;28;20304;-73
2021/04/11 05:29:06;;;;;;;2.10;0.50;;;;;;;;;;5118228;27;20625;-73
2021/04/11 05:31:34;;;;;;;1.30;0.70;;;;;;;;;;5119823;28;20284;-73
2021/04/11 05:34:02;;;;;;;0.43;0.43;;;;;;;;;;5117461;28;20211;-73
2021/04/11 05:36:41;;;;;;;0.97;0.50;;;;;;;;;;5120557;28;20224;-73
2021/04/11 05:39:13;;;;;;;0.50;0.50;;;;;;;;;;5116476;28;20280;-74
2021/04/11 05:41:42;;;;;;;0.40;0.40;;;;;;;;;;5118704;27;20277;-73
2021/04/11 05:44:10;;;;;;;0.40;0.40;;;;;;;;;;5120121;28;20228;-73
2021/04/11 05:46:39;;;;;;;1.27;0.70;;;;;;;;;;5117608;28;20217;-73
2021/04/11 05:49:09;;;;;;;0.60;0.60;;;;;;;;;;5118778;28;20648;-74
2021/04/11 05:51:39;;;;;;;0.70;0.70;;;;;;;;;;5117141;28;20219;-74
2021/04/11 05:54:10;;;;;;;0.50;0.50;;;;;;;;;;5115139;28;20280;-74
2021/04/11 05:56:39;;;;;;;3.13;1.00;;;;;;;;;;5118183;27;20621;-72
2021/04/11 05:59:08;;;;;;;1.00;0.60;;;;;;;;;;5116429;28;20600;-74
2021/04/11 06:01:39;;;;;;;0.50;0.50;;;;;;;;;;5118287;27;20220;-73
2021/04/11 06:04:12;;;;;;;0.97;0.50;;;;;;;;;;5115503;28;20201;-74
2021/04/11 06:06:43;;;;;;;1.00;0.50;;;;;;;;;;5117471;28;20311;-74
2021/04/11 06:09:12;;;;;;;1.43;0.60;;;;;;;;;;5117630;28;20240;-73
2021/04/11 06:11:42;;;;;;;0.43;0.40;;;;;;;;;;5117521;28;20292;-74
2021/04/11 06:14:12;;;;;;;0.73;0.50;;;;;;;;;;5117635;28;20247;-73
2021/04/11 06:16:39;;;;;;;1.23;0.50;;;;;;;;;;5119541;28;20228;-73
2021/04/11 06:19:06;;;;;;;0.53;0.53;;;;;;;;;;5121643;28;20209;-73
2021/04/11 06:21:48;;;;;;;0.93;0.50;;;;;;;;;;5121316;28;20684;-73
2021/04/11 06:24:21;;;;;;;0.50;0.50;;;;;;;;;;5121207;28;20323;-73
2021/04/11 06:26:51;;;;;;;0.73;0.73;;;;;;;;;;5120741;28;20779;-73
2021/04/11 06:29:21;;;;;;;0.60;0.60;;;;;;;;;;5121249;28;20733;-73
2021/04/11 06:31:49;;;;;;;0.60;0.53;;;;;;;;;;5121372;28;20239;-73
2021/04/11 06:34:18;;;;;;;1.10;0.70;;;;;;;;;;5121183;28;20205;-73
2021/04/11 06:36:47;;;;;;;0.77;0.50;;;;;;;;;;5121334;28;20211;-73
2021/04/11 06:39:18;;;;;;;1.20;0.60;;;;;;;;;;5112654;28;20289;-74
2021/04/11 06:41:53;;;;;;;0.40;0.40;;;;;;;;;;5107838;28;20231;-75
2021/04/11 06:44:35;;;;;;;0.50;0.50;;;;;;;;;;5105371;28;20772;-74
2021/04/11 06:47:10;;;;;;;0.60;0.60;;;;;;;;;;5109417;28;20882;-73
2021/04/11 06:49:49;;;;;;;1.13;0.57;;;;;;;;;;5107715;28;20203;-73
2021/04/11 06:52:31;;;;;;;1.10;0.40;;;;;;;;;;5103154;28;20242;-74
2021/04/11 06:55:28;;;;;;;0.40;0.40;;;;;;;;;;5105890;28;20322;-74
2021/04/11 06:58:01;;;;;;;0.60;0.60;;;;;;;;;;5046690;28;20295;-75
2021/04/11 07:00:38;;;;;;;1.17;0.70;;;;;;;;;;5107566;28;20205;-75
2021/04/11 07:03:29;;;;;;;0.40;0.40;;;;;;;;;;5119222;28;20295;-75
2021/04/11 07:06:27;;;;;;;2.57;0.77;;;;;;;;;;5061898;28;20710;-75
2021/04/11 07:09:03;;;;;;;1.67;0.60;;;;;;;;;;5119293;28;20721;-74
2021/04/11 07:11:40;;;;;;;0.50;0.50;;;;;;;;;;5118993;28;20243;-75
2021/04/11 07:14:25;;;;;;;1.23;0.80;;;;;;;;;;5119315;28;20247;-75
2021/04/11 07:17:08;;;;;;;0.60;0.60;;;;;;;;;;5119228;28;20288;-74
2021/04/11 07:19:44;;;;;;;0.60;0.50;;;;;;;;;;5119316;28;20220;-75
2021/04/11 07:22:22;;;;;;;0.47;0.47;;;;;;;;;;5119084;28;20231;-75
2021/04/11 07:25:12;;;;;;;1.23;0.60;;;;;;;;;;5118929;28;20323;-75
2021/04/11 07:27:45;;;;;;;0.87;0.87;;;;;;;;;;5117055;28;20656;-75
2021/04/11 07:30:16;;;;;;;1.47;0.67;;;;;;;;;;5119186;28;20264;-74
2021/04/11 07:33:00;;;;;;;0.60;0.60;;;;;;;;;;5118999;28;20239;-74
2021/04/11 07:35:34;;;;;;;0.60;0.60;;;;;;;;;;5117638;27;20225;-75
2021/04/11 07:38:08;;;;;;;0.60;0.60;;;;;;;;;;5107133;28;20216;-74
2021/04/11 07:40:43;;;;;;;0.70;0.70;;;;;;;;;;5102078;28;20240;-75
2021/04/11 07:43:19;;;;;;;1.17;0.63;;;;;;;;;;5107505;28;20192;-75
2021/04/11 07:46:03;;;;;;;0.30;0.30;;;;;;;;;;5107483;28;20217;-75
2021/04/11 07:48:42;;;;;;;0.77;0.53;;;;;;;;;;5106752;28;20623;-75
2021/04/11 07:51:16;;;;;;;0.37;0.30;;;;;;;;;;5108346;28;20221;-75
2021/04/11 07:53:52;;;;;;;0.50;0.47;;;;;;;;;;5108839;28;20230;-75
2021/04/11 07:56:22;;;;;;;0.30;0.30;;;;;;;;;;5106275;28;20229;-75
2021/04/11 07:59:07;;;;;;;0.40;0.40;;;;;;;;;;5108553;28;20235;-74
2021/04/11 08:01:52;;;;;;;0.40;0.40;;;;;;;;;;5101011;28;20265;-75
2021/04/11 08:04:28;;;;;;;1.50;0.80;;;;;;;;;;5105350;28;20284;-72
2021/04/11 08:07:12;;;;;;;0.30;0.30;;;;;;;;;;5120635;27;20230;-72
2021/04/11 08:09:46;;;;;;;0.40;0.33;;;;;;;;;;5106481;28;20207;-73
2021/04/11 08:12:24;;;;;;;0.53;0.50;;;;;;;;;;5106657;28;20264;-72
2021/04/11 08:14:54;;;;;;;0.30;0.30;;;;;;;;;;5107715;28;20638;-73
2021/04/11 08:17:38;;;;;;;0.40;0.37;;;;;;;;;;5116504;28;20280;-72
2021/04/11 08:20:12;;;;;;;0.50;0.50;;;;;;;;;;5114804;28;20243;-73
2021/04/11 08:22:53;;;;;;;0.40;0.40;;;;;;;;;;5135975;27;20225;-73
2021/04/11 08:25:25;;;;;;;1.07;0.40;;;;;;;;;;5105542;27;20232;-72
2021/04/11 08:28:06;;;;;;;1.13;0.40;;;;;;;;;;5118426;28;20213;-73
2021/04/11 08:30:45;;;;;;;1.43;0.30;;;;;;;;;;5118748;28;20205;-73
2021/04/11 08:33:19;;;;;;;0.50;0.50;;;;;;;;;;5118775;28;20703;-74
2021/04/11 08:36:05;;;;;;;3.00;0.87;;;;;;;;;;5118522;28;20216;-73
2021/04/11 08:39:02;;;;;;;0.70;0.67;;;;;;;;;;5104315;28;20280;-74
2021/04/11 08:41:38;;;;;;;0.50;0.50;;;;;;;;;;5103465;28;20236;-74
2021/04/11 08:44:14;;;;;;;0.50;0.50;;;;;;;;;;5104736;28;20748;-74
2021/04/11 08:46:56;;;;;;;0.53;0.50;;;;;;;;;;5108601;28;20252;-74
2021/04/11 08:49:27;;;;;;;1.70;0.77;;;;;;;;;;5111525;27;20574;-74
2021/04/11 08:52:00;;;;;;;0.70;0.70;;;;;;;;;;5118397;28;20704;-74
2021/04/11 08:54:35;;;;;;;0.67;0.50;;;;;;;;;;5118370;28;20273;-74
2021/04/11 08:57:09;;;;;;;0.73;0.57;;;;;;;;;;5118015;28;20197;-74
2021/04/11 08:59:42;;;;;;;1.33;0.43;;;;;;;;;;5118184;28;20235;-74
2021/04/11 09:02:26;;;;;;;0.50;0.50;;;;;;;;;;5118162;28;20632;-74
2021/04/11 09:04:56;;;;;;;1.00;0.50;;;;;;;;;;5117882;28;20262;-74
2021/04/11 09:07:33;;;;;;;0.50;0.50;;;;;;;;;;5117957;28;20227;-73
2021/04/11 09:10:07;;;;;;;0.60;0.60;;;;;;;;;;5118246;28;20283;-73
2021/04/11 09:12:41;;;;;;;0.50;0.43;;;;;;;;;;5126450;27;20674;-73
2021/04/11 09:15:12;;;;;;;0.50;0.50;;;;;;;;;;5138383;27;20220;-73
2021/04/11 09:17:46;;;;;;;1.03;0.50;;;;;;;;;;5115770;27;20243;-73
2021/04/11 09:20:17;;;;;;;0.80;0.80;;;;;;;;;;5118246;28;20211;-73
2021/04/11 09:22:56;;;;;;;0.80;0.53;;;;;;;;;;5118177;28;20240;-73
2021/04/11 09:25:25;;;;;;;0.50;0.50;;;;;;;;;;5117323;28;20236;-72
2021/04/11 09:28:01;;;;;;;0.50;0.50;;;;;;;;;;5117764;28;20205;-74
2021/04/11 09:30:55;;;;;;;2.30;0.60;;;;;;;;;;5114809;28;20201;-72
2021/04/11 09:33:30;;;;;;;0.40;0.40;;;;;;;;;;5081478;28;20280;-74
2021/04/11 09:36:03;;;;;;;0.87;0.40;;;;;;;;;;5107471;28;20295;-74
2021/04/11 09:38:41;;;;;;;1.00;0.50;;;;;;;;;;5105138;28;20198;-74
2021/04/11 09:41:26;;;;;;;0.30;0.30;;;;;;;;;;5105882;28;20231;-73
2021/04/11 09:44:06;;;;;;;0.40;0.40;;;;;;;;;;5117945;28;20236;-73
2021/04/11 09:46:44;;;;;;;0.50;0.50;;;;;;;;;;5117508;28;20346;-73
2021/04/11 09:49:34;;;;;;;0.90;0.40;;;;;;;;;;5117604;28;20208;-73
2021/04/11 09:52:29;;;;;;;0.87;0.40;;;;;;;;;;5118508;28;20205;-74
2021/04/11 09:55:01;;;;;;;0.47;0.47;;;;;;;;;;5078445;27;20284;-73
2021/04/11 09:57:39;;;;;;;0.50;0.50;;;;;;;;;;5107553;28;20198;-74
2021/04/11 10:00:10;;;;;;;1.30;0.47;;;;;;;;;;5109216;28;20291;-73
2021/04/11 10:02:44;;;;;;;1.73;0.67;;;;;;;;;;5107228;28;20301;-74
2021/04/11 10:05:19;;;;;;;2.40;0.50;;;;;;;;;;5106441;28;20233;-74
2021/04/11 10:07:53;;;;;;;0.40;0.40;;;;;;;;;;5112856;27;20205;-75
2021/04/11 10:10:31;;;;;;;0.53;0.53;;;;;;;;;;5117850;27;20646;-74
2021/04/11 10:13:04;;;;;;;0.70;0.50;;;;;;;;;;5109147;28;20201;-74
2021/04/11 10:15:34;;;;;;;2.10;0.60;;;;;;;;;;5108138;28;20673;-74
2021/04/11 10:18:19;;;;;;;0.60;0.60;;;;;;;;;;5108016;28;20229;-74
2021/04/11 10:20:50;;;;;;;1.40;0.63;;;;;;;;;;5102257;27;20735;-72
2021/04/11 10:23:20;;;;;;;0.50;0.50;;;;;;;;;;5110416;28;20636;-73
2021/04/11 10:25:51;;;;;;;1.40;0.50;;;;;;;;;;5119989;28;20236;-74
2021/04/11 10:28:20;;;;;;;0.50;0.50;;;;;;;;;;5120762;28;20208;-73
2021/04/11 10:30:54;;;;;;;0.90;0.60;;;;;;;;;;5120852;28;20228;-73
2021/04/11 10:33:25;;;;;;;0.87;0.60;;;;;;;;;;5120784;28;20285;-74
2021/04/11 10:35:56;;;;;;;1.47;0.63;;;;;;;;;;5120448;28;20229;-74
2021/04/11 10:38:27;;;;;;;1.07;0.70;;;;;;;;;;5120564;28;20299;-76
2021/04/11 10:41:08;;;;;;;1.37;0.60;;;;;;;;;;5120374;28;20291;-73
2021/04/11 10:43:59;;;;;;;2.00;0.67;;;;;;;;;;5120196;28;20663;-72
2021/04/11 10:46:31;;;;;;;1.53;1.03;;;;;;;;;;5120311;28;20281;-74
2021/04/11 10:49:02;;;;;;;0.93;0.50;;;;;;;;;;5107748;28;20216;-73
2021/04/11 10:51:47;;;;;;;2.00;0.47;;;;;;;;;;5115723;27;20293;-73
2021/04/11 10:54:29;;;;;;;0.60;0.60;;;;;;;;;;5102509;28;20288;-74
2021/04/11 10:57:10;;;;;;;1.67;0.60;;;;;;;;;;5105387;28;20615;-72
2021/04/11 10:59:49;;;;;;;0.37;0.37;;;;;;;;;;5109542;28;20236;-73
2021/04/11 11:02:34;;;;;;;0.67;0.47;;;;;;;;;;5111686;28;20300;-73
2021/04/11 11:05:07;;;;;;;0.67;0.47;;;;;;;;;;5105217;28;20573;-74
2021/04/11 11:07:41;;;;;;;3.97;0.57;;;;;;;;;;5107976;28;20220;-74
2021/04/11 11:10:11;;;;;;;0.73;0.60;;;;;;;;;;5101666;28;20609;-73
2021/04/11 11:12:58;;;;;;;0.50;0.50;;;;;;;;;;5105881;28;20729;-74
2021/04/11 11:15:35;;;;;;;1.20;0.53;;;;;;;;;;5108120;28;20221;-74
2021/04/11 11:18:20;;;;;;;2.73;0.63;;;;;;;;;;5107293;28;20627;-74
2021/04/11 11:20:54;;;;;;;1.70;0.70;;;;;;;;;;5103601;28;20236;-74
2021/04/11 11:23:45;;;;;;;0.47;0.37;;;;;;;;;;5107587;28;20229;-74
2021/04/11 11:26:33;;;;;;;1.40;0.70;;;;;;;;;;5111165;28;20312;-76
2021/04/11 11:29:16;;;;;;;0.43;0.43;;;;;;;;;;5112874;28;20250;-74
2021/04/11 11:31:53;;;;;;;1.80;0.67;;;;;;;;;;5119573;28;20236;-75
2021/04/11 11:34:29;;;;;;;1.97;0.70;;;;;;;;;;5119855;28;20224;-75
2021/04/11 11:37:06;;;;;;;0.93;0.70;;;;;;;;;;5119918;28;20228;-75
2021/04/11 11:39:37;;;;;;;0.60;0.60;;;;;;;;;;5119496;28;20196;-75
2021/04/11 11:42:11;;;;;;;2.30;0.70;;;;;;;;;;5113335;28;20209;-75
2021/04/11 11:44:41;;;;;;;0.43;0.43;;;;;;;;;;5119716;28;20311;-75
2021/04/11 11:47:14;;;;;;;0.60;0.60;;;;;;;;;;5112836;28;20236;-75
2021/04/11 11:49:45;;;;;;;1.80;0.77;;;;;;;;;;5119439;27;20661;-75
2021/04/11 11:52:17;;;;;;;1.20;0.50;;;;;;;;;;5119007;28;20649;-74
2021/04/11 11:54:46;;;;;;;0.53;0.50;;;;;;;;;;5118169;27;20217;-75
2021/04/11 11:57:19;;;;;;;1.87;0.57;;;;;;;;;;5118589;28;20242;-74
2021/04/11 11:59:48;;;;;;;0.57;0.50;;;;;;;;;;5120477;27;20236;-76
2021/04/11 12:02:25;;;;;;;0.63;0.63;;;;;;;;;;5118775;28;20597;-77
2021/04/11 12:04:57;;;;;;;0.60;0.53;;;;;;;;;;5117060;28;20602;-76
2021/04/11 12:07:29;;;;;;;0.83;0.67;;;;;;;;;;5122538;27;20221;-76
2021/04/11 12:10:06;;;;;;;0.70;0.70;;;;;;;;;;5137944;27;20232;-76
2021/04/11 12:12:36;;;;;;;0.90;0.70;;;;;;;;;;5119205;28;20719;-77
2021/04/11 12:15:06;;;;;;;0.43;0.40;;;;;;;;;;5118285;28;20312;-76
2021/04/11 12:17:34;;;;;;;0.60;0.50;;;;;;;;;;5118927;28;20235;-76
2021/04/11 12:20:04;;;;;;;0.50;0.50;;;;;;;;;;5132334;27;20230;-76
2021/04/11 12:22:34;;;;;;;0.40;0.40;;;;;;;;;;5139385;27;20214;-76
2021/04/11 12:25:05;;;;;;;0.40;0.40;;;;;;;;;;5138861;27;20698;-76
2021/04/11 12:27:34;;;;;;;0.80;0.57;;;;;;;;;;5139200;27;20284;-76
2021/04/11 12:30:02;;;;;;;0.50;0.50;;;;;;;;;;5138111;27;20209;-76
2021/04/11 12:32:34;;;;;;;1.23;0.40;;;;;;;;;;5118228;28;20292;-76
2021/04/11 12:35:09;;;;;;;0.73;0.60;;;;;;;;;;5117372;28;20247;-77
2021/04/11 12:37:40;;;;;;;0.43;0.43;;;;;;;;;;5118365;28;20292;-76
2021/04/11 12:40:15;;;;;;;0.93;0.40;;;;;;;;;;5105216;28;20236;-76
2021/04/11 12:42:45;;;;;;;0.67;0.30;;;;;;;;;;5118325;28;20293;-76
2021/04/11 12:45:15;;;;;;;0.60;0.60;;;;;;;;;;5118598;27;20228;-75
2021/04/11 12:47:52;;;;;;;1.17;0.40;;;;;;;;;;5107023;28;20221;-76
2021/04/11 12:50:26;;;;;;;0.33;0.33;;;;;;;;;;5118662;28;20314;-76
2021/04/11 12:53:07;;;;;;;0.77;0.30;;;;;;;;;;5137425;27;20203;-76
2021/04/11 12:55:37;;;;;;;1.07;0.20;;;;;;;;;;5138357;27;20318;-76
2021/04/11 12:58:06;;;;;;;0.87;0.43;;;;;;;;;;5138936;27;20257;-76
2021/04/11 13:00:34;;;;;;;1.10;0.33;;;;;;;;;;5138657;27;20667;-76
2021/04/11 13:03:05;;;;;;;0.60;0.60;;;;;;;;;;5138576;27;20204;-76
2021/04/11 13:05:35;;;;;;;0.60;0.60;;;;;;;;;;5138708;27;20262;-76
2021/04/11 13:08:04;;;;;;;2.40;0.90;;;;;;;;;;5138775;27;20273;-76
2021/04/11 13:10:34;;;;;;;1.37;0.87;;;;;;;;;;5124562;27;20204;-76
2021/04/11 13:13:05;;;;;;;1.67;1.00;;;;;;;;;;5117935;28;20205;-76
2021/04/11 13:15:34;;;;;;;1.10;1.00;;;;;;;;;;5117992;28;20757;-76
2021/04/11 13:18:11;;;;;;;1.03;1.03;;;;;;;;;;5117950;27;20204;-76
2021/04/11 13:20:41;;;;;;;2.13;1.27;;;;;;;;;;5119680;28;20293;-76
2021/04/11 13:23:11;;;;;;;1.17;1.07;;;;;;;;;;5137843;27;20239;-75
2021/04/11 13:25:42;;;;;;;1.30;1.20;;;;;;;;;;5138926;27;20244;-76
2021/04/11 13:28:15;;;;;;;1.40;1.00;;;;;;;;;;5142921;27;20239;-75
2021/04/11 13:30:44;;;;;;;1.37;1.10;;;;;;;;;;5143055;27;20290;-76
2021/04/11 13:33:15;;;;;;;1.30;1.20;;;;;;;;;;5142975;27;20548;-75
2021/04/11 13:35:46;;;;;;;1.40;1.30;;;;;;;;;;5128790;27;20303;-76
2021/04/11 13:38:16;;;;;;;3.77;1.67;;;;;;;;;;5122352;28;20727;-76
2021/04/11 13:40:45;;;;;;;3.23;1.60;;;;;;;;;;5121789;27;20264;-77
2021/04/11 13:43:16;;;;;;;2.30;1.63;;;;;;;;;;5121808;28;20676;-76
2021/04/11 13:45:46;;;;;;;1.53;1.43;;;;;;;;;;5122044;28;20284;-75
2021/04/11 13:48:24;;;;;;;0.60;0.40;;;;;;;;;;5113276;28;20656;-75
2021/04/11 13:50:57;;;;;;;0.93;0.50;;;;;;;;;;5121983;28;20204;-77
2021/04/11 13:53:33;;;;;;;1.03;0.60;;;;;;;;;;5122314;28;20243;-76
2021/04/11 13:56:12;;;;;;;0.60;0.60;;;;;;;;;;5121925;28;20220;-75
2021/04/11 13:58:44;;;;;;;1.03;0.57;;;;;;;;;;5121983;28;20291;-76
2021/04/11 14:01:14;;;;;;;0.50;0.50;;;;;;;;;;5122067;28;20236;-76
2021/04/11 14:03:47;;;;;;;1.30;0.70;;;;;;;;;;5121919;28;20283;-76
2021/04/11 14:06:19;;;;;;;0.70;0.50;;;;;;;;;;5121597;28;20707;-76
2021/04/11 14:08:49;;;;;;;0.80;0.50;;;;;;;;;;5121829;28;20272;-76
2021/04/11 14:11:23;;;;;;;2.70;0.90;;;;;;;;;;5121548;28;20239;-76
2021/04/11 14:13:55;;;;;;;1.57;0.80;;;;;;;;;;5121852;28;20291;-77
2021/04/11 14:16:23;;;;;;;0.43;0.43;;;;;;;;;;5121585;28;20284;-76
2021/04/11 14:18:51;;;;;;;0.83;0.57;;;;;;;;;;5121759;28;20300;-76
2021/04/11 14:21:22;;;;;;;0.47;0.47;;;;;;;;;;5121518;28;20287;-76
2021/04/11 14:23:57;;;;;;;0.50;0.50;;;;;;;;;;5121473;28;20229;-76
2021/04/11 14:26:28;;;;;;;0.50;0.50;;;;;;;;;;5120834;28;20286;-76
2021/04/11 14:28:58;;;;;;;2.50;1.30;;;;;;;;;;5121245;28;20288;-76
2021/04/11 14:31:28;;;;;;;5.00;1.87;;;;;;;;;;5121390;28;20283;-76
2021/04/11 14:33:58;;;;;;;3.17;2.03;;;;;;;;;;5121228;28;20250;-76
2021/04/11 14:36:26;;;;;;;3.40;2.20;;;;;;;;;;5120660;28;20285;-77
2021/04/11 14:38:55;;;;;;;4.17;2.10;;;;;;;;;;5121103;28;20659;-76
2021/04/11 14:41:26;;;;;;;4.87;2.17;;;;;;;;;;5120670;28;20236;-76
2021/04/11 14:43:56;;;;;;;2.17;2.03;;;;;;;;;;5120981;28;20244;-76
2021/04/11 14:46:25;;;;;;;2.07;1.80;;;;;;;;;;5117881;28;20265;-76
2021/04/11 14:48:52;;;;;;;2.20;1.70;;;;;;;;;;5115328;28;20243;-76
2021/04/11 14:51:26;;;;;;;2.63;2.40;;;;;;;;;;5120997;28;20236;-76
2021/04/11 14:54:00;;;;;;;2.30;1.90;;;;;;;;;;5120845;28;20239;-77
2021/04/11 14:56:31;;;;;;;1.80;1.53;;;;;;;;;;5120632;27;20197;-76
2021/04/11 14:59:08;;;;;;;2.70;1.50;;;;;;;;;;5120792;28;20292;-75
2021/04/11 15:01:38;;;;;;;6.93;2.13;;;;;;;;;;5120659;28;20640;-76
2021/04/11 15:04:14;;;;;;;2.13;1.40;;;;;;;;;;5120520;28;20201;-76
2021/04/11 15:06:43;;;;;;;2.07;1.57;;;;;;;;;;5120386;28;20653;-76
2021/04/11 15:09:23;;;;;;;1.57;1.27;;;;;;;;;;5120815;28;20300;-76
2021/04/11 15:11:55;;;;;;;1.50;1.37;;;;;;;;;;5120301;28;20287;-76
2021/04/11 15:14:27;;;;;;;2.83;1.53;;;;;;;;;;5120790;28;20313;-77